sensor_id;sensor_type;location;lat;lon;timestamp;pressure;altitude;pressure_sealevel;temperature;humidity
66668;BME280;57205;51.438;-2.006;2023-03-01T00:02:12;102620.28;;;4.78;100.00
66668;BME280;57205;51.438;-2.006;2023-03-01T00:04:37;102623.00;;;4.70;100.00
66668;BME280;57205;51.438;-2.006;2023-03-01T00:07:03;102621.03;;;4.64;100.00
66668;BME280;57205;51.438;-2.006;2023-03-01T00:09:28;102626.53;;;4.62;100.00
66668;BME280;57205;51.438;-2.006;2023-03-01T00:11:53;102614.25;;;4.61;100.00
66668;BME280;57205;51.438;-2.006;2023-03-01T00:14:19;102620.09;;;4.57;100.00
66668;BME280;57205;51.438;-2.006;2023-03-01T00:16:45;102618.16;;;4.51;100.00
66668;BME280;57205;51.438;-2.006;2023-03-01T00:19:14;102614.84;;;4.49;100.00
66668;BME280;57205;51.438;-2.006;2023-03-01T00:21:40;102614.38;;;4.45;100.00
66668;BME280;57205;51.438;-2.006;2023-03-01T00:24:05;102612.38;;;4.47;100.00
66668;BME280;57205;51.438;-2.006;2023-03-01T00:26:34;102621.50;;;4.45;100.00
66668;BME280;57205;51.438;-2.006;2023-03-01T00:28:59;102612.56;;;4.46;100.00
66668;BME280;57205;51.438;-2.006;2023-03-01T00:31:30;102612.69;;;4.44;100.00
66668;BME280;57205;51.438;-2.006;2023-03-01T00:33:56;102616.38;;;4.43;100.00
66668;BME280;57205;51.438;-2.006;2023-03-01T00:36:22;102618.00;;;4.44;100.00
66668;BME280;57205;51.438;-2.006;2023-03-01T00:38:48;102613.72;;;4.43;100.00
66668;BME280;57205;51.438;-2.006;2023-03-01T00:41:14;102609.91;;;4.46;100.00
66668;BME280;57205;51.438;-2.006;2023-03-01T00:43:40;102607.41;;;4.44;100.00
66668;BME280;57205;51.438;-2.006;2023-03-01T00:46:08;102607.94;;;4.40;100.00
66668;BME280;57205;51.438;-2.006;2023-03-01T00:48:34;102605.63;;;4.37;100.00
66668;BME280;57205;51.438;-2.006;2023-03-01T00:53:31;102612.13;;;4.34;100.00
66668;BME280;57205;51.438;-2.006;2023-03-01T00:55:57;102610.63;;;4.32;100.00
66668;BME280;57205;51.438;-2.006;2023-03-01T00:58:23;102614.59;;;4.36;100.00
66668;BME280;57205;51.438;-2.006;2023-03-01T01:00:48;102604.00;;;4.36;100.00
66668;BME280;57205;51.438;-2.006;2023-03-01T01:03:13;102609.28;;;4.36;100.00
66668;BME280;57205;51.438;-2.006;2023-03-01T01:05:38;102609.28;;;4.36;100.00
66668;BME280;57205;51.438;-2.006;2023-03-01T01:08:04;102603.16;;;4.35;100.00
66668;BME280;57205;51.438;-2.006;2023-03-01T01:10:29;102605.16;;;4.33;100.00
66668;BME280;57205;51.438;-2.006;2023-03-01T01:12:54;102598.41;;;4.31;100.00
66668;BME280;57205;51.438;-2.006;2023-03-01T01:15:20;102605.88;;;4.27;100.00
66668;BME280;57205;51.438;-2.006;2023-03-01T01:17:45;102610.34;;;4.27;100.00
66668;BME280;57205;51.438;-2.006;2023-03-01T01:20:10;102605.91;;;4.19;100.00
66668;BME280;57205;51.438;-2.006;2023-03-01T01:22:36;102605.06;;;4.19;100.00
66668;BME280;57205;51.438;-2.006;2023-03-01T01:25:04;102604.25;;;4.18;100.00
66668;BME280;57205;51.438;-2.006;2023-03-01T01:27:29;102606.41;;;4.15;100.00
66668;BME280;57205;51.438;-2.006;2023-03-01T01:29:55;102611.88;;;4.13;100.00
66668;BME280;57205;51.438;-2.006;2023-03-01T01:32:20;102607.75;;;4.11;100.00
66668;BME280;57205;51.438;-2.006;2023-03-01T01:34:45;102610.59;;;4.09;100.00
66668;BME280;57205;51.438;-2.006;2023-03-01T01:37:11;102606.28;;;4.08;100.00
66668;BME280;57205;51.438;-2.006;2023-03-01T01:39:36;102607.75;;;4.11;100.00
66668;BME280;57205;51.438;-2.006;2023-03-01T01:42:02;102597.69;;;4.06;100.00
66668;BME280;57205;51.438;-2.006;2023-03-01T01:44:27;102602.84;;;3.99;100.00
66668;BME280;57205;51.438;-2.006;2023-03-01T01:47:06;102601.72;;;3.94;100.00
66668;BME280;57205;51.438;-2.006;2023-03-01T01:49:37;102601.41;;;3.89;100.00
66668;BME280;57205;51.438;-2.006;2023-03-01T01:52:10;102606.88;;;3.87;100.00
66668;BME280;57205;51.438;-2.006;2023-03-01T01:54:42;102594.47;;;3.88;100.00
66668;BME280;57205;51.438;-2.006;2023-03-01T01:57:18;102587.69;;;3.85;100.00
66668;BME280;57205;51.438;-2.006;2023-03-01T01:59:45;102586.19;;;3.83;100.00
66668;BME280;57205;51.438;-2.006;2023-03-01T02:02:12;102582.38;;;3.85;100.00
66668;BME280;57205;51.438;-2.006;2023-03-01T02:04:38;102574.63;;;3.84;100.00
66668;BME280;57205;51.438;-2.006;2023-03-01T02:07:10;102578.09;;;3.84;100.00
66668;BME280;57205;51.438;-2.006;2023-03-01T02:09:38;102569.03;;;3.79;100.00
66668;BME280;57205;51.438;-2.006;2023-03-01T02:12:03;102571.03;;;3.77;100.00
66668;BME280;57205;51.438;-2.006;2023-03-01T02:14:29;102572.84;;;3.76;100.00
66668;BME280;57205;51.438;-2.006;2023-03-01T02:16:54;102564.06;;;3.76;100.00
66668;BME280;57205;51.438;-2.006;2023-03-01T02:19:30;102561.41;;;3.76;100.00
66668;BME280;57205;51.438;-2.006;2023-03-01T02:22:13;102559.59;;;3.76;100.00
66668;BME280;57205;51.438;-2.006;2023-03-01T02:27:07;102554.66;;;3.73;100.00
66668;BME280;57205;51.438;-2.006;2023-03-01T02:29:34;102546.72;;;3.73;100.00
66668;BME280;57205;51.438;-2.006;2023-03-01T02:32:00;102550.03;;;3.67;100.00
66668;BME280;57205;51.438;-2.006;2023-03-01T02:34:27;102543.91;;;3.67;100.00
66668;BME280;57205;51.438;-2.006;2023-03-01T02:36:59;102539.78;;;3.64;100.00
66668;BME280;57205;51.438;-2.006;2023-03-01T02:39:34;102540.78;;;3.63;100.00
66668;BME280;57205;51.438;-2.006;2023-03-01T02:42:02;102545.59;;;3.60;100.00
66668;BME280;57205;51.438;-2.006;2023-03-01T02:44:27;102541.47;;;3.57;100.00
66668;BME280;57205;51.438;-2.006;2023-03-01T02:46:54;102546.47;;;3.52;100.00
66668;BME280;57205;51.438;-2.006;2023-03-01T02:49:38;102537.84;;;3.50;100.00
66668;BME280;57205;51.438;-2.006;2023-03-01T02:57:27;102533.78;;;3.40;100.00
66668;BME280;57205;51.438;-2.006;2023-03-01T02:59:57;102535.09;;;3.36;100.00
66668;BME280;57205;51.438;-2.006;2023-03-01T03:02:29;102538.06;;;3.33;100.00
66668;BME280;57205;51.438;-2.006;2023-03-01T03:05:20;102538.72;;;3.35;100.00
66668;BME280;57205;51.438;-2.006;2023-03-01T03:07:46;102533.28;;;3.36;100.00
66668;BME280;57205;51.438;-2.006;2023-03-01T03:10:13;102527.47;;;3.41;100.00
66668;BME280;57205;51.438;-2.006;2023-03-01T03:12:39;102524.16;;;3.39;100.00
66668;BME280;57205;51.438;-2.006;2023-03-01T03:15:05;102523.00;;;3.41;100.00
66668;BME280;57205;51.438;-2.006;2023-03-01T03:17:34;102518.56;;;3.42;100.00
66668;BME280;57205;51.438;-2.006;2023-03-01T03:20:00;102520.00;;;3.44;100.00
66668;BME280;57205;51.438;-2.006;2023-03-01T03:22:25;102515.56;;;3.45;100.00
66668;BME280;57205;51.438;-2.006;2023-03-01T03:24:53;102513.75;;;3.45;100.00
66668;BME280;57205;51.438;-2.006;2023-03-01T03:27:19;102517.84;;;3.48;100.00
66668;BME280;57205;51.438;-2.006;2023-03-01T03:29:44;102506.28;;;3.49;100.00
66668;BME280;57205;51.438;-2.006;2023-03-01T03:32:09;102505.28;;;3.50;100.00
66668;BME280;57205;51.438;-2.006;2023-03-01T03:34:34;102501.66;;;3.51;100.00
66668;BME280;57205;51.438;-2.006;2023-03-01T03:37:00;102503.09;;;3.53;100.00
66668;BME280;57205;51.438;-2.006;2023-03-01T03:39:26;102503.75;;;3.55;100.00
66668;BME280;57205;51.438;-2.006;2023-03-01T03:41:52;102501.94;;;3.56;100.00
66668;BME280;57205;51.438;-2.006;2023-03-01T03:44:17;102499.31;;;3.56;100.00
66668;BME280;57205;51.438;-2.006;2023-03-01T03:46:42;102497.31;;;3.58;100.00
66668;BME280;57205;51.438;-2.006;2023-03-01T03:49:08;102497.31;;;3.58;100.00
66668;BME280;57205;51.438;-2.006;2023-03-01T03:51:33;102498.47;;;3.55;100.00
66668;BME280;57205;51.438;-2.006;2023-03-01T03:53:58;102494.84;;;3.56;100.00
66668;BME280;57205;51.438;-2.006;2023-03-01T03:56:24;102492.00;;;3.58;100.00
66668;BME280;57205;51.438;-2.006;2023-03-01T03:58:51;102495.63;;;3.65;100.00
66668;BME280;57205;51.438;-2.006;2023-03-01T04:01:16;102492.97;;;3.65;100.00
66668;BME280;57205;51.438;-2.006;2023-03-01T04:03:41;102492.97;;;3.65;100.00
66668;BME280;57205;51.438;-2.006;2023-03-01T04:06:11;102481.03;;;3.69;100.00
66668;BME280;57205;51.438;-2.006;2023-03-01T04:08:36;102483.34;;;3.72;100.00
66668;BME280;57205;51.438;-2.006;2023-03-01T04:11:02;102474.59;;;3.71;100.00
66668;BME280;57205;51.438;-2.006;2023-03-01T04:13:48;102477.56;;;3.68;100.00
66668;BME280;57205;51.438;-2.006;2023-03-01T04:16:13;102475.44;;;3.64;100.00
66668;BME280;57205;51.438;-2.006;2023-03-01T04:18:39;102482.09;;;3.60;100.00
66668;BME280;57205;51.438;-2.006;2023-03-01T04:21:04;102476.78;;;3.60;100.00
66668;BME280;57205;51.438;-2.006;2023-03-01T04:23:30;102473.66;;;3.56;100.00
66668;BME280;57205;51.438;-2.006;2023-03-01T04:25:56;102476.13;;;3.58;100.00
66668;BME280;57205;51.438;-2.006;2023-03-01T04:28:26;102462.44;;;3.54;100.00
66668;BME280;57205;51.438;-2.006;2023-03-01T04:30:52;102468.69;;;3.53;100.00
66668;BME280;57205;51.438;-2.006;2023-03-01T04:33:18;102465.72;;;3.56;100.00
66668;BME280;57205;51.438;-2.006;2023-03-01T04:35:43;102462.44;;;3.54;100.00
66668;BME280;57205;51.438;-2.006;2023-03-01T04:38:08;102463.25;;;3.55;100.00
66668;BME280;57205;51.438;-2.006;2023-03-01T04:40:34;102471.03;;;3.56;100.00
66668;BME280;57205;51.438;-2.006;2023-03-01T04:42:59;102470.84;;;3.58;100.00
66668;BME280;57205;51.438;-2.006;2023-03-01T04:45:25;102474.16;;;3.60;100.00
66668;BME280;57205;51.438;-2.006;2023-03-01T04:47:50;102468.03;;;3.59;100.00
66668;BME280;57205;51.438;-2.006;2023-03-01T04:50:17;102464.38;;;3.60;100.00
66668;BME280;57205;51.438;-2.006;2023-03-01T04:52:45;102460.91;;;3.60;100.00
66668;BME280;57205;51.438;-2.006;2023-03-01T04:55:10;102457.06;;;3.62;100.00
66668;BME280;57205;51.438;-2.006;2023-03-01T04:57:36;102461.69;;;3.68;100.00
66668;BME280;57205;51.438;-2.006;2023-03-01T05:00:02;102458.84;;;3.70;100.00
66668;BME280;57205;51.438;-2.006;2023-03-01T05:02:44;102461.34;;;3.71;100.00
66668;BME280;57205;51.438;-2.006;2023-03-01T05:05:10;102469.94;;;3.73;100.00
66668;BME280;57205;51.438;-2.006;2023-03-01T05:07:35;102466.94;;;3.76;100.00
66668;BME280;57205;51.438;-2.006;2023-03-01T05:10:01;102468.25;;;3.80;100.00
66668;BME280;57205;51.438;-2.006;2023-03-01T05:12:26;102453.34;;;3.79;100.00
66668;BME280;57205;51.438;-2.006;2023-03-01T05:14:51;102447.88;;;3.81;100.00
66668;BME280;57205;51.438;-2.006;2023-03-01T05:17:16;102444.25;;;3.82;100.00
66668;BME280;57205;51.438;-2.006;2023-03-01T05:19:42;102447.72;;;3.82;100.00
66668;BME280;57205;51.438;-2.006;2023-03-01T05:22:07;102443.41;;;3.81;100.00
66668;BME280;57205;51.438;-2.006;2023-03-01T05:24:33;102441.03;;;3.86;100.00
66668;BME280;57205;51.438;-2.006;2023-03-01T05:26:59;102442.34;;;3.90;100.00
66668;BME280;57205;51.438;-2.006;2023-03-01T05:29:26;102442.00;;;3.93;100.00
66668;BME280;57205;51.438;-2.006;2023-03-01T05:31:55;102434.25;;;3.92;100.00
66668;BME280;57205;51.438;-2.006;2023-03-01T05:34:24;102438.06;;;3.89;100.00
66668;BME280;57205;51.438;-2.006;2023-03-01T05:36:50;102438.53;;;3.93;100.00
66668;BME280;57205;51.438;-2.006;2023-03-01T05:39:18;102443.84;;;3.93;100.00
66668;BME280;57205;51.438;-2.006;2023-03-01T05:41:43;102438.16;;;3.96;100.00
66668;BME280;57205;51.438;-2.006;2023-03-01T05:44:09;102434.88;;;3.94;100.00
66668;BME280;57205;51.438;-2.006;2023-03-01T05:46:34;102441.00;;;3.94;100.00
66668;BME280;57205;51.438;-2.006;2023-03-01T05:48:59;102433.72;;;3.96;100.00
66668;BME280;57205;51.438;-2.006;2023-03-01T05:51:25;102439.38;;;3.93;100.00
66668;BME280;57205;51.438;-2.006;2023-03-01T05:53:51;102434.53;;;3.97;100.00
66668;BME280;57205;51.438;-2.006;2023-03-01T05:56:16;102430.59;;;3.93;100.00
66668;BME280;57205;51.438;-2.006;2023-03-01T05:58:41;102438.63;;;3.99;100.00
66668;BME280;57205;51.438;-2.006;2023-03-01T06:01:10;102431.53;;;4.00;100.00
66668;BME280;57205;51.438;-2.006;2023-03-01T06:03:36;102435.19;;;3.99;100.00
66668;BME280;57205;51.438;-2.006;2023-03-01T06:06:01;102437.38;;;3.95;100.00
66668;BME280;57205;51.438;-2.006;2023-03-01T06:08:27;102435.38;;;3.97;100.00
66668;BME280;57205;51.438;-2.006;2023-03-01T06:10:52;102439.19;;;3.95;100.00
66668;BME280;57205;51.438;-2.006;2023-03-01T06:13:17;102441.84;;;3.95;100.00
66668;BME280;57205;51.438;-2.006;2023-03-01T06:15:42;102442.81;;;3.94;100.00
66668;BME280;57205;51.438;-2.006;2023-03-01T06:18:08;102440.81;;;3.96;100.00
66668;BME280;57205;51.438;-2.006;2023-03-01T06:20:33;102435.72;;;3.94;100.00
66668;BME280;57205;51.438;-2.006;2023-03-01T06:22:58;102436.53;;;3.95;100.00
66668;BME280;57205;51.438;-2.006;2023-03-01T06:25:25;102440.53;;;3.91;100.00
66668;BME280;57205;51.438;-2.006;2023-03-01T06:27:51;102446.84;;;3.90;100.00
66668;BME280;57205;51.438;-2.006;2023-03-01T06:30:20;102445.19;;;3.89;100.00
66668;BME280;57205;51.438;-2.006;2023-03-01T06:32:45;102444.06;;;3.83;100.00
66668;BME280;57205;51.438;-2.006;2023-03-01T06:35:11;102442.91;;;3.86;100.00
66668;BME280;57205;51.438;-2.006;2023-03-01T06:37:37;102450.38;;;3.82;100.00
66668;BME280;57205;51.438;-2.006;2023-03-01T06:40:03;102447.72;;;3.82;100.00
66668;BME280;57205;51.438;-2.006;2023-03-01T06:42:36;102457.84;;;3.79;100.00
66668;BME280;57205;51.438;-2.006;2023-03-01T06:45:02;102457.97;;;3.77;100.00
66668;BME280;57205;51.438;-2.006;2023-03-01T06:47:27;102460.13;;;3.82;100.00
66668;BME280;57205;51.438;-2.006;2023-03-01T06:49:53;102457.00;;;3.78;100.00
66668;BME280;57205;51.438;-2.006;2023-03-01T06:52:18;102458.63;;;3.79;100.00
66668;BME280;57205;51.438;-2.006;2023-03-01T06:54:43;102453.81;;;3.83;100.00
66668;BME280;57205;51.438;-2.006;2023-03-01T06:57:08;102464.41;;;3.83;100.00
66668;BME280;57205;51.438;-2.006;2023-03-01T06:59:33;102467.06;;;3.83;100.00
66668;BME280;57205;51.438;-2.006;2023-03-01T07:01:59;102467.06;;;3.83;100.00
66668;BME280;57205;51.438;-2.006;2023-03-01T07:04:24;102468.91;;;3.82;100.00
66668;BME280;57205;51.438;-2.006;2023-03-01T07:06:49;102470.34;;;3.85;100.00
66668;BME280;57205;51.438;-2.006;2023-03-01T07:09:20;102475.81;;;3.83;100.00
66668;BME280;57205;51.438;-2.006;2023-03-01T07:11:47;102466.06;;;3.84;100.00
66668;BME280;57205;51.438;-2.006;2023-03-01T07:14:12;102466.72;;;3.86;100.00
66668;BME280;57205;51.438;-2.006;2023-03-01T07:16:37;102472.66;;;3.88;100.00
66668;BME280;57205;51.438;-2.006;2023-03-01T07:19:02;102469.84;;;3.89;100.00
66668;BME280;57205;51.438;-2.006;2023-03-01T07:21:28;102466.84;;;3.92;100.00
66668;BME280;57205;51.438;-2.006;2023-03-01T07:23:53;102472.78;;;3.94;100.00
66668;BME280;57205;51.438;-2.006;2023-03-01T07:26:18;102467.47;;;3.94;100.00
66668;BME280;57205;51.438;-2.006;2023-03-01T07:28:44;102474.25;;;3.97;100.00
66668;BME280;57205;51.438;-2.006;2023-03-01T07:31:09;102478.91;;;3.95;100.00
66668;BME280;57205;51.438;-2.006;2023-03-01T07:33:34;102477.09;;;3.95;100.00
66668;BME280;57205;51.438;-2.006;2023-03-01T07:36:00;102483.03;;;3.97;100.00
66668;BME280;57205;51.438;-2.006;2023-03-01T07:38:26;102485.78;;;4.04;100.00
66668;BME280;57205;51.438;-2.006;2023-03-01T07:40:52;102487.97;;;4.01;100.00
66668;BME280;57205;51.438;-2.006;2023-03-01T07:43:17;102483.81;;;4.06;100.00
66668;BME280;57205;51.438;-2.006;2023-03-01T07:45:43;102482.97;;;4.06;100.00
66668;BME280;57205;51.438;-2.006;2023-03-01T07:48:08;102488.91;;;4.08;100.00
66668;BME280;57205;51.438;-2.006;2023-03-01T07:50:33;102486.09;;;4.09;100.00
66668;BME280;57205;51.438;-2.006;2023-03-01T07:52:59;102484.56;;;4.15;100.00
66668;BME280;57205;51.438;-2.006;2023-03-01T07:55:24;102485.84;;;4.19;100.00
66668;BME280;57205;51.438;-2.006;2023-03-01T07:57:49;102479.84;;;4.25;100.00
66668;BME280;57205;51.438;-2.006;2023-03-01T08:00:15;102486.56;;;4.35;100.00
66668;BME280;57205;51.438;-2.006;2023-03-01T08:02:40;102484.38;;;4.39;100.00
66668;BME280;57205;51.438;-2.006;2023-03-01T08:05:07;102482.38;;;4.41;100.00
66668;BME280;57205;51.438;-2.006;2023-03-01T08:07:32;102481.22;;;4.43;100.00
66668;BME280;57205;51.438;-2.006;2023-03-01T08:09:58;102482.50;;;4.47;100.00
66668;BME280;57205;51.438;-2.006;2023-03-01T08:12:23;102482.97;;;4.51;100.00
66668;BME280;57205;51.438;-2.006;2023-03-01T08:14:48;102479.75;;;4.55;100.00
66668;BME280;57205;51.438;-2.006;2023-03-01T08:17:14;102478.53;;;4.66;100.00
66668;BME280;57205;51.438;-2.006;2023-03-01T08:19:39;102476.09;;;4.79;100.00
66668;BME280;57205;51.438;-2.006;2023-03-01T08:22:04;102474.88;;;4.81;100.00
66668;BME280;57205;51.438;-2.006;2023-03-01T08:24:30;102475.53;;;4.83;100.00
66668;BME280;57205;51.438;-2.006;2023-03-01T08:26:55;102476.16;;;4.85;100.00
66668;BME280;57205;51.438;-2.006;2023-03-01T08:29:21;102477.28;;;4.91;100.00
66668;BME280;57205;51.438;-2.006;2023-03-01T08:31:46;102478.09;;;4.91;100.00
66668;BME280;57205;51.438;-2.006;2023-03-01T08:34:12;102469.25;;;4.99;100.00
66668;BME280;57205;51.438;-2.006;2023-03-01T08:36:39;102468.53;;;5.05;100.00
66668;BME280;57205;51.438;-2.006;2023-03-01T08:39:05;102468.69;;;5.04;100.00
66668;BME280;57205;51.438;-2.006;2023-03-01T08:41:31;102465.50;;;4.93;100.00
66668;BME280;57205;51.438;-2.006;2023-03-01T08:43:56;102468.31;;;4.92;100.00
66668;BME280;57205;51.438;-2.006;2023-03-01T08:46:57;102471.63;;;4.94;100.00
66668;BME280;57205;51.438;-2.006;2023-03-01T08:49:17;102472.81;;;4.91;100.00
66668;BME280;57205;51.438;-2.006;2023-03-01T08:51:43;102462.19;;;4.91;100.00
66668;BME280;57205;51.438;-2.006;2023-03-01T08:54:12;102458.19;;;4.95;100.00
66668;BME280;57205;51.438;-2.006;2023-03-01T08:56:39;102459.09;;;5.03;100.00
66668;BME280;57205;51.438;-2.006;2023-03-01T08:59:04;102461.22;;;5.07;100.00
66668;BME280;57205;51.438;-2.006;2023-03-01T09:01:30;102460.00;;;5.10;100.00
66668;BME280;57205;51.438;-2.006;2023-03-01T09:03:55;102460.44;;;5.13;100.00
66668;BME280;57205;51.438;-2.006;2023-03-01T09:06:20;102465.94;;;5.12;100.00
66668;BME280;57205;51.438;-2.006;2023-03-01T09:08:47;102453.25;;;5.07;100.00
66668;BME280;57205;51.438;-2.006;2023-03-01T09:11:14;102458.72;;;5.06;100.00
66668;BME280;57205;51.438;-2.006;2023-03-01T09:13:40;102466.78;;;4.97;100.00
66668;BME280;57205;51.438;-2.006;2023-03-01T09:16:06;102467.22;;;5.01;100.00
66668;BME280;57205;51.438;-2.006;2023-03-01T09:18:32;102458.25;;;5.02;100.00
66668;BME280;57205;51.438;-2.006;2023-03-01T09:21:01;102466.66;;;5.06;100.00
66668;BME280;57205;51.438;-2.006;2023-03-01T09:23:27;102461.66;;;5.11;100.00
66668;BME280;57205;51.438;-2.006;2023-03-01T09:25:52;102462.63;;;5.24;100.00
66668;BME280;57205;51.438;-2.006;2023-03-01T09:28:17;102454.09;;;5.58;100.00
66668;BME280;57205;51.438;-2.006;2023-03-01T09:30:42;102444.69;;;6.12;100.00
66668;BME280;57205;51.438;-2.006;2023-03-01T09:33:08;102439.34;;;6.54;100.00
66668;BME280;57205;51.438;-2.006;2023-03-01T09:35:39;102449.13;;;7.09;100.00
66668;BME280;57205;51.438;-2.006;2023-03-01T09:38:10;102431.56;;;7.15;100.00
66668;BME280;57205;51.438;-2.006;2023-03-01T09:40:36;102434.13;;;7.02;100.00
66668;BME280;57205;51.438;-2.006;2023-03-01T09:43:47;102427.81;;;6.75;100.00
66668;BME280;57205;51.438;-2.006;2023-03-01T09:45:46;102429.09;;;6.79;100.00
66668;BME280;57205;51.438;-2.006;2023-03-01T09:48:16;102421.84;;;6.66;100.00
66668;BME280;57205;51.438;-2.006;2023-03-01T09:50:42;102421.25;;;6.71;100.00
66668;BME280;57205;51.438;-2.006;2023-03-01T09:53:10;102419.16;;;6.94;100.00
66668;BME280;57205;51.438;-2.006;2023-03-01T09:58:16;102414.97;;;7.86;100.00
66668;BME280;57205;51.438;-2.006;2023-03-01T10:00:48;102405.97;;;7.87;100.00
66668;BME280;57205;51.438;-2.006;2023-03-01T10:06:27;102403.59;;;8.44;100.00
66668;BME280;57205;51.438;-2.006;2023-03-01T10:11:01;102389.00;;;8.21;99.61
66668;BME280;57205;51.438;-2.006;2023-03-01T10:16:37;102394.25;;;7.75;100.00
66668;BME280;57205;51.438;-2.006;2023-03-01T10:18:41;102383.75;;;7.41;100.00
66668;BME280;57205;51.438;-2.006;2023-03-01T10:21:14;102381.19;;;7.20;100.00
66668;BME280;57205;51.438;-2.006;2023-03-01T10:23:41;102388.81;;;6.88;100.00
66668;BME280;57205;51.438;-2.006;2023-03-01T10:26:10;102386.72;;;6.77;100.00
66668;BME280;57205;51.438;-2.006;2023-03-01T10:31:11;102382.09;;;6.58;100.00
66668;BME280;57205;51.438;-2.006;2023-03-01T10:33:38;102377.50;;;6.46;100.00
66668;BME280;57205;51.438;-2.006;2023-03-01T10:36:06;102372.38;;;6.44;100.00
66668;BME280;57205;51.438;-2.006;2023-03-01T10:38:46;102382.13;;;6.37;100.00
66668;BME280;57205;51.438;-2.006;2023-03-01T10:41:12;102379.72;;;6.42;100.00
66668;BME280;57205;51.438;-2.006;2023-03-01T10:43:53;102379.00;;;6.55;100.00
66668;BME280;57205;51.438;-2.006;2023-03-01T10:46:35;102373.28;;;6.58;100.00
66668;BME280;57205;51.438;-2.006;2023-03-01T10:49:17;102371.38;;;6.79;100.00
66668;BME280;57205;51.438;-2.006;2023-03-01T10:51:44;102374.91;;;6.86;100.00
66668;BME280;57205;51.438;-2.006;2023-03-01T10:54:20;102368.31;;;6.82;100.00
66668;BME280;57205;51.438;-2.006;2023-03-01T10:56:50;102368.72;;;6.79;100.00
66668;BME280;57205;51.438;-2.006;2023-03-01T10:59:37;102371.53;;;6.71;100.00
66668;BME280;57205;51.438;-2.006;2023-03-01T11:04:39;102354.81;;;6.84;100.00
66668;BME280;57205;51.438;-2.006;2023-03-01T11:07:04;102354.47;;;6.93;100.00
66668;BME280;57205;51.438;-2.006;2023-03-01T11:09:31;102356.34;;;7.06;100.00
66668;BME280;57205;51.438;-2.006;2023-03-01T11:12:02;102351.78;;;6.93;100.00
66668;BME280;57205;51.438;-2.006;2023-03-01T11:14:38;102345.19;;;6.83;100.00
66668;BME280;57205;51.438;-2.006;2023-03-01T11:17:11;102350.44;;;6.70;100.00
66668;BME280;57205;51.438;-2.006;2023-03-01T11:19:38;102353.22;;;6.55;100.00
66668;BME280;57205;51.438;-2.006;2023-03-01T11:22:14;102358.78;;;6.60;100.00
66668;BME280;57205;51.438;-2.006;2023-03-01T11:24:53;102346.19;;;6.75;100.00
66668;BME280;57205;51.438;-2.006;2023-03-01T11:27:28;102341.78;;;6.96;100.00
66668;BME280;57205;51.438;-2.006;2023-03-01T11:29:57;102333.84;;;7.09;100.00
66668;BME280;57205;51.438;-2.006;2023-03-01T11:32:25;102334.31;;;7.25;100.00
66668;BME280;57205;51.438;-2.006;2023-03-01T11:34:54;102322.25;;;7.36;100.00
66668;BME280;57205;51.438;-2.006;2023-03-01T11:37:23;102317.38;;;7.46;100.00
66668;BME280;57205;51.438;-2.006;2023-03-01T11:39:54;102316.59;;;7.71;100.00
66668;BME280;57205;51.438;-2.006;2023-03-01T11:42:28;102303.06;;;7.86;100.00
66668;BME280;57205;51.438;-2.006;2023-03-01T11:44:54;102303.88;;;7.86;100.00
66668;BME280;57205;51.438;-2.006;2023-03-01T11:49:59;102288.72;;;7.80;100.00
66668;BME280;57205;51.438;-2.006;2023-03-01T12:03:13;102290.25;;;7.10;100.00
66668;BME280;57205;51.438;-2.006;2023-03-01T12:08:20;102276.13;;;7.09;100.00
66668;BME280;57205;51.438;-2.006;2023-03-01T12:13:27;102273.47;;;7.09;100.00
66668;BME280;57205;51.438;-2.006;2023-03-01T12:21:23;102255.63;;;7.03;100.00
66668;BME280;57205;51.438;-2.006;2023-03-01T12:31:29;102246.69;;;7.82;100.00
66668;BME280;57205;51.438;-2.006;2023-03-01T12:34:09;102236.84;;;7.96;100.00
66668;BME280;57205;51.438;-2.006;2023-03-01T12:42:40;102231.94;;;7.60;100.00
66668;BME280;57205;51.438;-2.006;2023-03-01T12:44:49;102233.56;;;7.29;100.00
66668;BME280;57205;51.438;-2.006;2023-03-01T12:50:03;102238.47;;;7.19;100.00
66668;BME280;57205;51.438;-2.006;2023-03-01T12:53:14;102220.22;;;7.16;100.00
66668;BME280;57205;51.438;-2.006;2023-03-01T12:55:29;102211.84;;;7.12;100.00
66668;BME280;57205;51.438;-2.006;2023-03-01T13:00:41;102206.75;;;7.37;100.00
66668;BME280;57205;51.438;-2.006;2023-03-01T13:06:04;102187.50;;;7.61;100.00
66668;BME280;57205;51.438;-2.006;2023-03-01T13:08:34;102181.09;;;7.75;100.00
66668;BME280;57205;51.438;-2.006;2023-03-01T13:11:02;102173.31;;;7.93;100.00
66668;BME280;57205;51.438;-2.006;2023-03-01T13:13:28;102174.09;;;8.00;100.00
66668;BME280;57205;51.438;-2.006;2023-03-01T13:15:54;102156.44;;;8.06;100.00
66668;BME280;57205;51.438;-2.006;2023-03-01T13:31:03;102128.78;;;8.00;100.00
66668;BME280;57205;51.438;-2.006;2023-03-01T13:35:54;102128.66;;;7.75;100.00
66668;BME280;57205;51.438;-2.006;2023-03-01T13:41:06;102129.13;;;7.46;100.00
66668;BME280;57205;51.438;-2.006;2023-03-01T13:43:35;102120.31;;;7.33;100.00
66668;BME280;57205;51.438;-2.006;2023-03-01T13:46:02;102122.78;;;7.28;100.00
66668;BME280;57205;51.438;-2.006;2023-03-01T13:48:32;102118.88;;;7.30;100.00
66668;BME280;57205;51.438;-2.006;2023-03-01T13:51:02;102119.88;;;7.36;100.00
66668;BME280;57205;51.438;-2.006;2023-03-01T13:53:29;102119.69;;;7.44;100.00
66668;BME280;57205;51.438;-2.006;2023-03-01T14:01:32;102096.13;;;7.54;100.00
66668;BME280;57205;51.438;-2.006;2023-03-01T14:03:57;102097.31;;;7.64;100.00
66668;BME280;57205;51.438;-2.006;2023-03-01T14:06:24;102086.88;;;7.63;100.00
66668;BME280;57205;51.438;-2.006;2023-03-01T14:08:52;102091.78;;;7.72;100.00
66668;BME280;57205;51.438;-2.006;2023-03-01T14:21:17;102070.34;;;8.05;100.00
66668;BME280;57205;51.438;-2.006;2023-03-01T14:23:43;102072.38;;;8.03;100.00
66668;BME280;57205;51.438;-2.006;2023-03-01T14:26:08;102076.72;;;7.98;100.00
66668;BME280;57205;51.438;-2.006;2023-03-01T14:28:37;102081.47;;;7.89;100.00